Terminal Aerodrome Forecast
Issued by NWS

Home | Current Version | Previous Version | Text Only | Print | Product List | Glossary On
Versions: 1 2 3 4 5 6 7 8 9 10 11 12 13 14 15 16 17 18 19 20 21 22
000
FTUS44 KBMX 231140
TAFMGM
TAF
KMGM 231140Z 2312/2412 VRB03KT 5SM BR BKN250
     FM231400 20006KT P6SM SCT050 BKN250
     FM240100 VRB02KT P6SM SCT250=

USA.gov is the U.S. government's official web portal to all federal, state and local government web resources and services.